sensor_id;sensor_type;location;lat;lon;timestamp;pressure;altitude;pressure_sealevel;temperature;humidity
13367;BME280;6752;52.612;13.630;2023-08-31T00:00:49;99876.89;;;14.64;100.00
13367;BME280;6752;52.612;13.630;2023-08-31T00:05:52;99873.23;;;14.67;100.00
13367;BME280;6752;52.612;13.630;2023-08-31T00:10:57;99860.23;;;14.76;100.00
13367;BME280;6752;52.612;13.630;2023-08-31T00:15:59;99857.50;;;14.83;100.00
13367;BME280;6752;52.612;13.630;2023-08-31T00:21:02;99860.64;;;14.76;100.00
13367;BME280;6752;52.612;13.630;2023-08-31T00:26:04;99859.84;;;14.83;100.00
13367;BME280;6752;52.612;13.630;2023-08-31T00:31:06;99845.55;;;14.73;100.00
13367;BME280;6752;52.612;13.630;2023-08-31T00:36:09;99848.70;;;14.76;100.00
13367;BME280;6752;52.612;13.630;2023-08-31T00:41:11;99850.75;;;14.72;100.00
13367;BME280;6752;52.612;13.630;2023-08-31T00:46:13;99846.38;;;14.77;100.00
13367;BME280;6752;52.612;13.630;2023-08-31T00:51:16;99842.66;;;14.74;100.00
13367;BME280;6752;52.612;13.630;2023-08-31T00:56:18;99849.41;;;14.80;100.00
13367;BME280;6752;52.612;13.630;2023-08-31T01:01:36;99841.45;;;14.81;100.00
13367;BME280;6752;52.612;13.630;2023-08-31T01:07:00;99828.14;;;14.81;100.00
13367;BME280;6752;52.612;13.630;2023-08-31T01:12:18;99838.76;;;14.91;100.00
13367;BME280;6752;52.612;13.630;2023-08-31T01:17:19;99838.30;;;14.86;100.00
13367;BME280;6752;52.612;13.630;2023-08-31T01:22:31;99838.03;;;14.85;100.00
13367;BME280;6752;52.612;13.630;2023-08-31T01:27:33;99849.05;;;14.93;100.00
13367;BME280;6752;52.612;13.630;2023-08-31T01:32:35;99846.68;;;14.90;100.00
13367;BME280;6752;52.612;13.630;2023-08-31T01:37:42;99855.86;;;14.85;100.00
13367;BME280;6752;52.612;13.630;2023-08-31T01:42:43;99852.95;;;14.73;100.00
13367;BME280;6752;52.612;13.630;2023-08-31T01:47:45;99859.97;;;14.82;100.00
13367;BME280;6752;52.612;13.630;2023-08-31T01:52:47;99878.44;;;15.05;100.00
13367;BME280;6752;52.612;13.630;2023-08-31T01:57:50;99870.33;;;15.01;100.00
13367;BME280;6752;52.612;13.630;2023-08-31T02:02:52;99881.18;;;15.05;100.00
13367;BME280;6752;52.612;13.630;2023-08-31T02:07:54;99875.15;;;15.08;100.00
13367;BME280;6752;52.612;13.630;2023-08-31T02:12:57;99889.41;;;15.07;100.00
13367;BME280;6752;52.612;13.630;2023-08-31T02:17:59;99886.39;;;15.06;100.00
13367;BME280;6752;52.612;13.630;2023-08-31T02:23:01;99891.47;;;15.03;100.00
13367;BME280;6752;52.612;13.630;2023-08-31T02:28:04;99897.09;;;15.03;100.00
13367;BME280;6752;52.612;13.630;2023-08-31T02:33:06;99896.25;;;14.97;100.00
13367;BME280;6752;52.612;13.630;2023-08-31T02:38:08;99917.66;;;14.98;100.00
13367;BME280;6752;52.612;13.630;2023-08-31T02:43:11;99925.87;;;14.93;100.00
13367;BME280;6752;52.612;13.630;2023-08-31T02:48:13;99929.33;;;14.70;100.00
13367;BME280;6752;52.612;13.630;2023-08-31T02:53:16;99916.43;;;14.68;100.00
13367;BME280;6752;52.612;13.630;2023-08-31T02:58:18;99931.05;;;14.63;100.00
13367;BME280;6752;52.612;13.630;2023-08-31T03:03:20;99921.78;;;14.69;100.00
13367;BME280;6752;52.612;13.630;2023-08-31T03:08:23;99940.64;;;14.60;100.00
13367;BME280;6752;52.612;13.630;2023-08-31T03:13:25;99943.05;;;14.49;100.00
13367;BME280;6752;52.612;13.630;2023-08-31T03:18:28;99944.14;;;14.35;100.00
13367;BME280;6752;52.612;13.630;2023-08-31T03:23:30;99952.77;;;14.32;100.00
13367;BME280;6752;52.612;13.630;2023-08-31T03:28:32;99960.69;;;14.29;100.00
13367;BME280;6752;52.612;13.630;2023-08-31T03:33:34;99948.72;;;14.21;100.00
13367;BME280;6752;52.612;13.630;2023-08-31T03:38:37;99946.87;;;14.32;100.00
13367;BME280;6752;52.612;13.630;2023-08-31T03:43:39;99939.01;;;14.25;100.00
13367;BME280;6752;52.612;13.630;2023-08-31T03:48:41;99959.63;;;14.19;100.00
13367;BME280;6752;52.612;13.630;2023-08-31T03:53:44;99969.16;;;14.25;100.00
13367;BME280;6752;52.612;13.630;2023-08-31T03:58:46;99964.70;;;14.19;100.00
13367;BME280;6752;52.612;13.630;2023-08-31T04:03:49;99979.59;;;14.12;100.00
13367;BME280;6752;52.612;13.630;2023-08-31T04:08:51;99976.55;;;14.08;100.00
13367;BME280;6752;52.612;13.630;2023-08-31T04:13:53;99973.66;;;14.06;100.00
13367;BME280;6752;52.612;13.630;2023-08-31T04:18:56;99980.51;;;13.93;100.00
13367;BME280;6752;52.612;13.630;2023-08-31T04:23:58;99985.42;;;14.04;100.00
13367;BME280;6752;52.612;13.630;2023-08-31T04:29:01;99990.08;;;14.04;100.00
13367;BME280;6752;52.612;13.630;2023-08-31T04:34:03;99993.17;;;13.96;100.00
13367;BME280;6752;52.612;13.630;2023-08-31T04:39:05;99999.39;;;14.03;100.00
13367;BME280;6752;52.612;13.630;2023-08-31T04:44:07;100002.84;;;14.07;100.00
13367;BME280;6752;52.612;13.630;2023-08-31T04:49:10;99996.45;;;14.12;100.00
13367;BME280;6752;52.612;13.630;2023-08-31T04:54:12;99999.62;;;14.15;100.00
13367;BME280;6752;52.612;13.630;2023-08-31T04:59:14;100001.52;;;14.12;100.00
13367;BME280;6752;52.612;13.630;2023-08-31T05:04:17;99997.23;;;14.07;100.00
13367;BME280;6752;52.612;13.630;2023-08-31T05:09:19;99995.51;;;14.15;100.00
13367;BME280;6752;52.612;13.630;2023-08-31T05:14:22;99997.40;;;14.25;100.00
13367;BME280;6752;52.612;13.630;2023-08-31T05:19:24;100009.03;;;14.24;100.00
13367;BME280;6752;52.612;13.630;2023-08-31T05:24:26;100015.64;;;14.28;100.00
13367;BME280;6752;52.612;13.630;2023-08-31T05:29:29;100003.91;;;14.46;100.00
13367;BME280;6752;52.612;13.630;2023-08-31T05:34:31;100013.20;;;14.66;100.00
13367;BME280;6752;52.612;13.630;2023-08-31T05:39:33;100020.44;;;14.77;100.00
13367;BME280;6752;52.612;13.630;2023-08-31T05:44:36;100031.38;;;14.72;100.00
13367;BME280;6752;52.612;13.630;2023-08-31T05:49:38;100041.16;;;14.79;100.00
13367;BME280;6752;52.612;13.630;2023-08-31T05:54:40;100049.63;;;14.72;100.00
13367;BME280;6752;52.612;13.630;2023-08-31T05:59:43;100056.46;;;14.70;100.00
13367;BME280;6752;52.612;13.630;2023-08-31T06:04:45;100058.47;;;14.66;100.00
13367;BME280;6752;52.612;13.630;2023-08-31T06:09:48;100063.73;;;14.70;100.00
13367;BME280;6752;52.612;13.630;2023-08-31T06:14:50;100061.05;;;14.80;100.00
13367;BME280;6752;52.612;13.630;2023-08-31T06:19:52;100063.58;;;14.89;100.00
13367;BME280;6752;52.612;13.630;2023-08-31T06:24:55;100058.08;;;14.89;100.00
13367;BME280;6752;52.612;13.630;2023-08-31T06:29:57;100070.48;;;15.16;100.00
13367;BME280;6752;52.612;13.630;2023-08-31T06:34:59;100068.48;;;15.27;100.00
13367;BME280;6752;52.612;13.630;2023-08-31T06:40:02;100080.69;;;15.25;100.00
13367;BME280;6752;52.612;13.630;2023-08-31T06:45:07;100083.97;;;15.22;100.00
13367;BME280;6752;52.612;13.630;2023-08-31T06:50:09;100091.99;;;15.13;100.00
13367;BME280;6752;52.612;13.630;2023-08-31T06:55:12;100094.27;;;15.02;100.00
13367;BME280;6752;52.612;13.630;2023-08-31T07:00:14;100097.69;;;15.20;100.00
13367;BME280;6752;52.612;13.630;2023-08-31T07:05:16;100103.70;;;15.38;100.00
13367;BME280;6752;52.612;13.630;2023-08-31T07:10:19;100113.95;;;15.36;100.00
13367;BME280;6752;52.612;13.630;2023-08-31T07:15:21;100114.77;;;15.32;100.00
13367;BME280;6752;52.612;13.630;2023-08-31T07:20:23;100122.72;;;15.31;100.00
13367;BME280;6752;52.612;13.630;2023-08-31T07:25:26;100122.45;;;15.32;100.00
13367;BME280;6752;52.612;13.630;2023-08-31T07:30:28;100131.89;;;15.49;100.00
13367;BME280;6752;52.612;13.630;2023-08-31T07:35:31;100130.73;;;15.59;100.00
13367;BME280;6752;52.612;13.630;2023-08-31T07:40:33;100137.23;;;15.63;100.00
13367;BME280;6752;52.612;13.630;2023-08-31T07:45:35;100137.00;;;15.75;100.00
13367;BME280;6752;52.612;13.630;2023-08-31T07:50:39;100153.75;;;15.71;100.00
13367;BME280;6752;52.612;13.630;2023-08-31T07:55:40;100162.14;;;15.78;100.00
13367;BME280;6752;52.612;13.630;2023-08-31T08:00:42;100166.97;;;15.82;100.00
13367;BME280;6752;52.612;13.630;2023-08-31T08:05:45;100165.28;;;16.07;100.00
13367;BME280;6752;52.612;13.630;2023-08-31T08:10:51;100180.34;;;16.25;100.00
13367;BME280;6752;52.612;13.630;2023-08-31T08:15:49;100177.72;;;16.25;100.00
13367;BME280;6752;52.612;13.630;2023-08-31T08:20:52;100186.91;;;16.14;100.00
13367;BME280;6752;52.612;13.630;2023-08-31T08:25:54;100188.48;;;17.16;100.00
13367;BME280;6752;52.612;13.630;2023-08-31T08:30:56;100183.91;;;16.70;100.00
13367;BME280;6752;52.612;13.630;2023-08-31T08:35:59;100177.15;;;17.53;100.00
13367;BME280;6752;52.612;13.630;2023-08-31T08:41:04;100180.63;;;17.92;100.00
13367;BME280;6752;52.612;13.630;2023-08-31T08:46:06;100180.68;;;18.71;100.00
13367;BME280;6752;52.612;13.630;2023-08-31T08:51:09;100200.89;;;18.29;97.04
13367;BME280;6752;52.612;13.630;2023-08-31T08:56:11;100197.86;;;18.28;92.23
13367;BME280;6752;52.612;13.630;2023-08-31T09:01:13;100201.30;;;17.99;93.43
13367;BME280;6752;52.612;13.630;2023-08-31T09:06:16;100203.41;;;17.85;91.75
13367;BME280;6752;52.612;13.630;2023-08-31T09:11:21;100197.74;;;18.51;90.67
13367;BME280;6752;52.612;13.630;2023-08-31T09:16:26;100193.13;;;19.77;83.90
13367;BME280;6752;52.612;13.630;2023-08-31T09:21:37;100192.61;;;19.17;81.09
13367;BME280;6752;52.612;13.630;2023-08-31T09:26:47;100194.95;;;19.14;80.83
13367;BME280;6752;52.612;13.630;2023-08-31T09:31:50;100196.47;;;20.31;77.26
13367;BME280;6752;52.612;13.630;2023-08-31T09:36:53;100178.66;;;21.06;71.59
13367;BME280;6752;52.612;13.630;2023-08-31T09:41:55;100182.67;;;21.07;69.67
13367;BME280;6752;52.612;13.630;2023-08-31T09:46:58;100193.72;;;20.90;71.53
13367;BME280;6752;52.612;13.630;2023-08-31T09:52:00;100188.38;;;19.71;72.73
13367;BME280;6752;52.612;13.630;2023-08-31T09:57:02;100192.92;;;19.40;73.91
13367;BME280;6752;52.612;13.630;2023-08-31T10:02:04;100194.02;;;19.97;73.73
13367;BME280;6752;52.612;13.630;2023-08-31T10:07:07;100197.26;;;19.22;72.43
13367;BME280;6752;52.612;13.630;2023-08-31T10:12:09;100175.13;;;21.10;69.82
13367;BME280;6752;52.612;13.630;2023-08-31T10:17:12;100172.78;;;21.79;68.20
13367;BME280;6752;52.612;13.630;2023-08-31T10:22:14;100174.09;;;20.96;66.17
13367;BME280;6752;52.612;13.630;2023-08-31T10:27:19;100187.80;;;20.62;65.63
13367;BME280;6752;52.612;13.630;2023-08-31T10:32:21;100190.00;;;20.20;65.01
13367;BME280;6752;52.612;13.630;2023-08-31T10:37:24;100182.16;;;21.67;63.31
13367;BME280;6752;52.612;13.630;2023-08-31T10:42:26;100176.79;;;22.28;61.33
13367;BME280;6752;52.612;13.630;2023-08-31T10:47:40;100176.92;;;21.93;60.94
13367;BME280;6752;52.612;13.630;2023-08-31T10:52:45;100185.02;;;20.97;62.08
13367;BME280;6752;52.612;13.630;2023-08-31T10:57:48;100200.18;;;19.91;64.63
13367;BME280;6752;52.612;13.630;2023-08-31T11:02:50;100229.69;;;18.35;73.06
13367;BME280;6752;52.612;13.630;2023-08-31T11:07:52;100245.60;;;17.48;87.43
13367;BME280;6752;52.612;13.630;2023-08-31T11:12:55;100235.28;;;17.44;86.78
13367;BME280;6752;52.612;13.630;2023-08-31T11:17:57;100228.80;;;17.77;89.37
13367;BME280;6752;52.612;13.630;2023-08-31T11:23:00;100227.77;;;17.93;87.63
13367;BME280;6752;52.612;13.630;2023-08-31T11:28:07;100225.08;;;17.77;87.76
13367;BME280;6752;52.612;13.630;2023-08-31T11:33:10;100226.32;;;17.58;86.92
13367;BME280;6752;52.612;13.630;2023-08-31T11:38:12;100220.94;;;17.49;90.40
13367;BME280;6752;52.612;13.630;2023-08-31T11:43:15;100211.19;;;18.70;89.19
13367;BME280;6752;52.612;13.630;2023-08-31T11:48:17;100211.13;;;20.22;83.41
13367;BME280;6752;52.612;13.630;2023-08-31T11:53:19;100207.37;;;20.59;72.55
13367;BME280;6752;52.612;13.630;2023-08-31T11:58:22;100202.30;;;21.50;71.36
13367;BME280;6752;52.612;13.630;2023-08-31T12:03:24;100198.34;;;21.46;67.77
13367;BME280;6752;52.612;13.630;2023-08-31T12:08:27;100213.06;;;20.10;72.58
13367;BME280;6752;52.612;13.630;2023-08-31T12:13:29;100211.55;;;19.99;76.43
13367;BME280;6752;52.612;13.630;2023-08-31T12:18:31;100224.99;;;19.07;76.54
13367;BME280;6752;52.612;13.630;2023-08-31T12:23:33;100226.91;;;19.09;78.38
13367;BME280;6752;52.612;13.630;2023-08-31T12:28:36;100224.21;;;18.81;76.68
13367;BME280;6752;52.612;13.630;2023-08-31T12:33:38;100228.10;;;18.51;78.97
13367;BME280;6752;52.612;13.630;2023-08-31T12:38:40;100230.73;;;18.22;79.03
13367;BME280;6752;52.612;13.630;2023-08-31T12:43:43;100227.06;;;20.31;74.98
13367;BME280;6752;52.612;13.630;2023-08-31T12:48:45;100226.10;;;20.92;70.19
13367;BME280;6752;52.612;13.630;2023-08-31T12:53:47;100216.10;;;21.29;63.37
13367;BME280;6752;52.612;13.630;2023-08-31T12:58:53;100208.73;;;21.78;65.55
13367;BME280;6752;52.612;13.630;2023-08-31T13:03:55;100212.08;;;21.84;63.82
13367;BME280;6752;52.612;13.630;2023-08-31T13:08:57;100203.69;;;22.00;63.84
13367;BME280;6752;52.612;13.630;2023-08-31T13:14:00;100205.83;;;20.88;61.76
13367;BME280;6752;52.612;13.630;2023-08-31T13:19:02;100195.56;;;21.39;62.13
13367;BME280;6752;52.612;13.630;2023-08-31T13:24:04;100194.05;;;21.77;65.89
13367;BME280;6752;52.612;13.630;2023-08-31T13:29:07;100200.92;;;20.73;64.77
13367;BME280;6752;52.612;13.630;2023-08-31T13:34:09;100204.67;;;19.96;65.47
13367;BME280;6752;52.612;13.630;2023-08-31T13:39:12;100180.77;;;21.53;65.57
13367;BME280;6752;52.612;13.630;2023-08-31T13:44:14;100189.56;;;20.81;64.40
13367;BME280;6752;52.612;13.630;2023-08-31T13:49:16;100186.28;;;21.21;64.18
13367;BME280;6752;52.612;13.630;2023-08-31T13:54:19;100186.85;;;21.20;61.56
13367;BME280;6752;52.612;13.630;2023-08-31T13:59:21;100191.05;;;21.18;62.11
13367;BME280;6752;52.612;13.630;2023-08-31T14:04:23;100195.77;;;21.59;62.99
13367;BME280;6752;52.612;13.630;2023-08-31T14:09:26;100200.91;;;21.26;63.92
13367;BME280;6752;52.612;13.630;2023-08-31T14:14:28;100206.61;;;21.42;62.32
13367;BME280;6752;52.612;13.630;2023-08-31T14:19:31;100232.81;;;19.91;65.13
13367;BME280;6752;52.612;13.630;2023-08-31T14:24:33;100234.88;;;18.98;66.33
13367;BME280;6752;52.612;13.630;2023-08-31T14:29:36;100248.46;;;18.65;68.75
13367;BME280;6752;52.612;13.630;2023-08-31T14:34:37;100245.13;;;18.36;67.25
13367;BME280;6752;52.612;13.630;2023-08-31T14:39:40;100256.16;;;18.38;68.90
13367;BME280;6752;52.612;13.630;2023-08-31T14:44:42;100265.83;;;17.98;71.79
13367;BME280;6752;52.612;13.630;2023-08-31T14:49:45;100273.03;;;17.79;71.96
13367;BME280;6752;52.612;13.630;2023-08-31T14:54:47;100331.19;;;17.85;73.12
13367;BME280;6752;52.612;13.630;2023-08-31T14:59:49;100344.28;;;15.87;79.75
13367;BME280;6752;52.612;13.630;2023-08-31T15:04:52;100341.97;;;15.74;81.61
13367;BME280;6752;52.612;13.630;2023-08-31T15:09:54;100346.43;;;16.03;82.32
13367;BME280;6752;52.612;13.630;2023-08-31T15:14:56;100345.42;;;15.77;84.69
13367;BME280;6752;52.612;13.630;2023-08-31T15:19:59;100341.27;;;16.33;83.37
13367;BME280;6752;52.612;13.630;2023-08-31T15:25:01;100338.74;;;16.05;85.49
13367;BME280;6752;52.612;13.630;2023-08-31T15:30:04;100336.04;;;16.63;83.74
13367;BME280;6752;52.612;13.630;2023-08-31T15:35:06;100327.48;;;16.88;80.51
13367;BME280;6752;52.612;13.630;2023-08-31T15:40:08;100325.37;;;17.33;83.82
13367;BME280;6752;52.612;13.630;2023-08-31T15:45:10;100348.56;;;16.65;78.15
13367;BME280;6752;52.612;13.630;2023-08-31T15:50:13;100352.83;;;16.35;80.96
13367;BME280;6752;52.612;13.630;2023-08-31T15:55:15;100340.89;;;16.40;82.27
13367;BME280;6752;52.612;13.630;2023-08-31T16:00:18;100333.91;;;16.51;80.66
13367;BME280;6752;52.612;13.630;2023-08-31T16:05:20;100331.49;;;16.96;81.87
13367;BME280;6752;52.612;13.630;2023-08-31T16:10:22;100335.14;;;16.78;78.36
13367;BME280;6752;52.612;13.630;2023-08-31T16:15:25;100326.81;;;16.99;79.70
13367;BME280;6752;52.612;13.630;2023-08-31T16:20:27;100327.28;;;16.68;79.44
13367;BME280;6752;52.612;13.630;2023-08-31T16:25:29;100312.01;;;16.40;80.46
13367;BME280;6752;52.612;13.630;2023-08-31T16:30:32;100306.71;;;16.29;81.40
13367;BME280;6752;52.612;13.630;2023-08-31T16:35:34;100308.84;;;16.11;80.12
13367;BME280;6752;52.612;13.630;2023-08-31T16:40:36;100311.11;;;16.30;81.07
13367;BME280;6752;52.612;13.630;2023-08-31T16:45:39;100310.53;;;16.23;81.39
13367;BME280;6752;52.612;13.630;2023-08-31T16:50:41;100314.50;;;16.16;82.88
13367;BME280;6752;52.612;13.630;2023-08-31T16:55:44;100317.06;;;16.33;82.03
13367;BME280;6752;52.612;13.630;2023-08-31T17:00:46;100320.02;;;16.00;82.27
13367;BME280;6752;52.612;13.630;2023-08-31T17:05:52;100323.91;;;16.06;80.17
13367;BME280;6752;52.612;13.630;2023-08-31T17:10:54;100320.63;;;15.86;81.49
13367;BME280;6752;52.612;13.630;2023-08-31T17:15:56;100319.90;;;15.82;81.87
13367;BME280;6752;52.612;13.630;2023-08-31T17:20:58;100319.81;;;15.85;82.71
13367;BME280;6752;52.612;13.630;2023-08-31T17:26:01;100327.07;;;15.64;84.78
13367;BME280;6752;52.612;13.630;2023-08-31T17:31:03;100319.05;;;15.47;86.46
13367;BME280;6752;52.612;13.630;2023-08-31T17:36:06;100325.08;;;15.44;87.79
13367;BME280;6752;52.612;13.630;2023-08-31T17:41:08;100330.92;;;15.23;86.43
13367;BME280;6752;52.612;13.630;2023-08-31T17:46:10;100328.13;;;15.04;87.38
13367;BME280;6752;52.612;13.630;2023-08-31T17:51:13;100339.05;;;14.99;88.96
13367;BME280;6752;52.612;13.630;2023-08-31T17:56:15;100335.45;;;14.85;90.03
13367;BME280;6752;52.612;13.630;2023-08-31T18:01:17;100340.30;;;14.76;90.48
13367;BME280;6752;52.612;13.630;2023-08-31T18:06:19;100339.07;;;14.67;92.23
13367;BME280;6752;52.612;13.630;2023-08-31T18:11:22;100357.64;;;14.59;94.85
13367;BME280;6752;52.612;13.630;2023-08-31T18:16:24;100356.35;;;14.37;100.00
13367;BME280;6752;52.612;13.630;2023-08-31T18:21:27;100351.03;;;14.28;100.00
13367;BME280;6752;52.612;13.630;2023-08-31T18:26:29;100351.70;;;14.18;100.00
13367;BME280;6752;52.612;13.630;2023-08-31T18:31:31;100369.63;;;14.06;100.00
13367;BME280;6752;52.612;13.630;2023-08-31T18:36:34;100376.25;;;14.00;100.00
13367;BME280;6752;52.612;13.630;2023-08-31T18:41:39;100371.81;;;13.96;100.00
13367;BME280;6752;52.612;13.630;2023-08-31T18:46:41;100375.20;;;14.03;100.00
13367;BME280;6752;52.612;13.630;2023-08-31T18:51:44;100365.87;;;14.02;100.00
13367;BME280;6752;52.612;13.630;2023-08-31T18:56:46;100365.82;;;13.91;100.00
13367;BME280;6752;52.612;13.630;2023-08-31T19:01:48;100364.24;;;13.70;100.00
13367;BME280;6752;52.612;13.630;2023-08-31T19:06:51;100364.50;;;13.60;100.00
13367;BME280;6752;52.612;13.630;2023-08-31T19:11:53;100363.27;;;13.45;100.00
13367;BME280;6752;52.612;13.630;2023-08-31T19:16:56;100367.38;;;13.45;100.00
13367;BME280;6752;52.612;13.630;2023-08-31T19:21:58;100378.08;;;13.38;100.00
13367;BME280;6752;52.612;13.630;2023-08-31T19:27:00;100384.38;;;13.30;100.00
13367;BME280;6752;52.612;13.630;2023-08-31T19:32:03;100383.76;;;13.25;100.00
13367;BME280;6752;52.612;13.630;2023-08-31T19:37:05;100380.91;;;13.14;100.00
13367;BME280;6752;52.612;13.630;2023-08-31T19:42:07;100382.35;;;13.11;100.00
13367;BME280;6752;52.612;13.630;2023-08-31T19:47:10;100382.63;;;12.98;100.00
13367;BME280;6752;52.612;13.630;2023-08-31T19:52:12;100391.06;;;12.88;100.00
13367;BME280;6752;52.612;13.630;2023-08-31T19:57:14;100398.83;;;12.94;100.00
13367;BME280;6752;52.612;13.630;2023-08-31T20:02:17;100402.49;;;12.85;100.00
13367;BME280;6752;52.612;13.630;2023-08-31T20:07:19;100418.13;;;12.75;100.00
13367;BME280;6752;52.612;13.630;2023-08-31T20:12:21;100417.27;;;12.78;100.00
13367;BME280;6752;52.612;13.630;2023-08-31T20:17:24;100420.09;;;12.77;100.00
13367;BME280;6752;52.612;13.630;2023-08-31T20:22:26;100415.66;;;12.68;100.00
13367;BME280;6752;52.612;13.630;2023-08-31T20:27:29;100425.03;;;12.84;100.00
13367;BME280;6752;52.612;13.630;2023-08-31T20:32:31;100431.61;;;12.91;100.00
13367;BME280;6752;52.612;13.630;2023-08-31T20:37:33;100437.37;;;12.92;100.00
13367;BME280;6752;52.612;13.630;2023-08-31T20:42:36;100439.52;;;12.90;100.00
13367;BME280;6752;52.612;13.630;2023-08-31T20:47:38;100440.77;;;12.91;100.00
13367;BME280;6752;52.612;13.630;2023-08-31T20:52:40;100445.75;;;12.94;100.00
13367;BME280;6752;52.612;13.630;2023-08-31T20:57:43;100447.88;;;12.98;100.00
13367;BME280;6752;52.612;13.630;2023-08-31T21:02:45;100450.37;;;12.99;100.00
13367;BME280;6752;52.612;13.630;2023-08-31T21:07:48;100457.70;;;13.02;100.00
13367;BME280;6752;52.612;13.630;2023-08-31T21:12:51;100452.15;;;12.99;100.00
13367;BME280;6752;52.612;13.630;2023-08-31T21:17:53;100460.78;;;13.05;100.00
13367;BME280;6752;52.612;13.630;2023-08-31T21:22:56;100473.34;;;12.92;100.00
13367;BME280;6752;52.612;13.630;2023-08-31T21:27:58;100471.60;;;12.80;100.00
13367;BME280;6752;52.612;13.630;2023-08-31T21:33:01;100472.13;;;12.86;100.00
13367;BME280;6752;52.612;13.630;2023-08-31T21:38:06;100478.42;;;12.74;100.00
13367;BME280;6752;52.612;13.630;2023-08-31T21:43:08;100482.35;;;12.73;100.00
13367;BME280;6752;52.612;13.630;2023-08-31T21:48:10;100474.02;;;12.85;100.00
13367;BME280;6752;52.612;13.630;2023-08-31T21:53:13;100479.25;;;12.87;100.00
13367;BME280;6752;52.612;13.630;2023-08-31T21:58:15;100482.75;;;12.90;100.00
13367;BME280;6752;52.612;13.630;2023-08-31T22:03:17;100481.44;;;12.93;100.00
13367;BME280;6752;52.612;13.630;2023-08-31T22:08:20;100484.44;;;13.00;100.00
13367;BME280;6752;52.612;13.630;2023-08-31T22:13:22;100486.48;;;13.04;100.00
13367;BME280;6752;52.612;13.630;2023-08-31T22:18:24;100494.52;;;13.03;100.00
13367;BME280;6752;52.612;13.630;2023-08-31T22:23:27;100494.79;;;13.10;100.00
13367;BME280;6752;52.612;13.630;2023-08-31T22:28:29;100498.89;;;13.10;100.00
13367;BME280;6752;52.612;13.630;2023-08-31T22:33:32;100493.75;;;13.25;100.00
13367;BME280;6752;52.612;13.630;2023-08-31T22:38:34;100495.18;;;13.16;100.00
13367;BME280;6752;52.612;13.630;2023-08-31T22:43:36;100486.72;;;13.03;100.00
13367;BME280;6752;52.612;13.630;2023-08-31T22:48:39;100490.80;;;13.09;100.00
13367;BME280;6752;52.612;13.630;2023-08-31T22:53:41;100482.94;;;13.12;100.00
13367;BME280;6752;52.612;13.630;2023-08-31T22:58:43;100479.19;;;12.90;100.00
13367;BME280;6752;52.612;13.630;2023-08-31T23:03:46;100481.97;;;12.93;100.00
13367;BME280;6752;52.612;13.630;2023-08-31T23:08:48;100481.83;;;12.79;100.00
13367;BME280;6752;52.612;13.630;2023-08-31T23:13:50;100482.36;;;12.67;100.00
13367;BME280;6752;52.612;13.630;2023-08-31T23:18:53;100475.19;;;12.57;100.00
13367;BME280;6752;52.612;13.630;2023-08-31T23:23:55;100485.59;;;12.58;100.00
13367;BME280;6752;52.612;13.630;2023-08-31T23:28:58;100483.02;;;12.66;100.00
13367;BME280;6752;52.612;13.630;2023-08-31T23:34:00;100486.38;;;12.56;100.00
13367;BME280;6752;52.612;13.630;2023-08-31T23:39:02;100489.02;;;12.53;100.00
13367;BME280;6752;52.612;13.630;2023-08-31T23:44:07;100493.01;;;12.48;100.00
13367;BME280;6752;52.612;13.630;2023-08-31T23:49:09;100493.13;;;12.42;100.00
13367;BME280;6752;52.612;13.630;2023-08-31T23:54:12;100499.97;;;12.42;100.00
13367;BME280;6752;52.612;13.630;2023-08-31T23:59:14;100505.08;;;12.38;100.00
